Mercer County Airport
KBLF : rendu visible

Aérodrome :











RETROUVEZ-NOUS SUR...

 
LOGIN :

S'inscrire | Disclaimer

   EN    FR    IT 

 









Légende :    VFR   VFR Marginal   IFR   IFR Intensif   IFR Très Intensif
Visi : 
Plafond : 
>= 8 km
>= 3000ft
5 à 8 km
1000 à 3000 ft
1500m à 5 km
500 à 1000 ft
800 à 1500m
200 à 500 ft
< 800m
< 200 ft
Symboles :   Orages  Brouillard  Fortes neiges  Fortes précipitations  Vent > 20 kt






- Altitude de l'aérodrome : 2857 ft
- Code IATA : BLF


KBLF - Mercer County

DERNIER METAR :
  • 170952Z AUTO 09009G14KT 10SM SCT012 BKN048 M03/M07 A3012 RMK AO2 SLP213 T10331072

METARs EXPIRÉS :
  • 170936Z AUTO 09007KT 060V120 10SM SCT013 BKN048 M03/M07 A3012 RMK AO2 T10331072
  • 170919Z AUTO 09005KT 10SM BKN013 M03/M07 A3013 RMK AO2 T10331072
  • 170852Z AUTO 09006KT 10SM FEW014 M03/M07 A3013 RMK AO2 SLP211 T10281067 58004
  • 170752Z AUTO 09008KT 10SM CLR M02/M07 A3014 RMK AO2 SLP215 T10221067

TAF KBLF
Valide du 17 à 10h jusqu'au 18 à 06h UTC


170941Z 1710/1806 09007KT P6SM SCT013 BKN050



MET'MAP, la Météo Aéronautique d'un coup d'oeil ! - Copyright ORBIFLY Décembre 2007 - Disclaimer

ORBIFLY MET'MAP TEAM :

Programmation & Développement : Alexandra Zaïnal
Conception & Développement : Baudouin d'Aumeries
Co-Programmation & Développement : Marc-Olivier Méhu
Soutien technique & logistique : Manuel Goepfert

Contact : metmap@orbifly.com




SOURCES & CREDITS :

   NOAA       Earth
Advisory